createdAt,value
2022-10-17T00:01:06.373Z,16.98
2022-10-17T00:03:34.438Z,16.96
2022-10-17T00:06:06.371Z,17.03
2022-10-17T00:08:34.044Z,17.01
2022-10-17T00:11:04.028Z,17.08
2022-10-17T00:16:02.850Z,16.90
2022-10-17T00:18:30.573Z,16.88
2022-10-17T00:20:58.325Z,16.84
2022-10-17T00:23:27.468Z,16.83
2022-10-17T00:26:01.961Z,16.92
2022-10-17T00:28:30.239Z,16.87
2022-10-17T00:30:58.778Z,16.89
2022-10-17T00:33:28.056Z,16.97
2022-10-17T00:36:05.408Z,17.03
2022-10-17T00:38:33.207Z,17.06
2022-10-17T00:41:00.937Z,17.02
2022-10-17T00:43:32.641Z,17.04
2022-10-17T00:46:00.283Z,17.07
2022-10-17T00:48:31.640Z,17.04
2022-10-17T00:51:03.157Z,17.00
2022-10-17T00:53:30.888Z,17.02
2022-10-17T00:56:00.966Z,16.95
2022-10-17T00:58:29.740Z,16.93
2022-10-17T01:00:57.470Z,16.96
2022-10-17T01:03:25.161Z,16.94
2022-10-17T01:05:54.230Z,16.99
2022-10-17T01:08:22.007Z,17.03
2022-10-17T01:10:55.269Z,17.02
2022-10-17T01:13:26.403Z,16.99
2022-10-17T01:16:03.420Z,17.10
2022-10-17T01:18:40.659Z,17.04
2022-10-17T01:21:34.089Z,17.02
2022-10-17T01:24:28.288Z,17.01
2022-10-17T01:27:09.483Z,16.96
2022-10-17T01:29:48.610Z,16.97
2022-10-17T01:32:19.910Z,16.98
2022-10-17T01:34:55.224Z,16.98
2022-10-17T01:37:29.042Z,16.98
2022-10-17T01:40:02.593Z,17.04
2022-10-17T01:42:34.958Z,17.03
2022-10-17T01:45:08.852Z,16.99
2022-10-17T01:47:38.894Z,17.04
2022-10-17T01:50:11.503Z,17.03
2022-10-17T01:52:44.917Z,17.01
2022-10-17T01:55:16.382Z,17.03
2022-10-17T01:57:47.605Z,17.09
2022-10-17T02:00:18.192Z,17.05
2022-10-17T02:02:49.586Z,17.06
2022-10-17T02:05:18.330Z,17.04
2022-10-17T02:07:46.127Z,17.08
2022-10-17T02:10:31.418Z,17.04
2022-10-17T02:13:05.100Z,16.98
2022-10-17T02:15:54.885Z,17.01
2022-10-17T02:18:36.294Z,16.99
2022-10-17T02:21:08.551Z,16.98
2022-10-17T02:23:39.501Z,16.97
2022-10-17T02:26:10.682Z,17.03
2022-10-17T02:28:43.088Z,16.99
2022-10-17T02:31:15.985Z,16.94
2022-10-17T02:33:48.169Z,16.94
2022-10-17T02:36:20.233Z,16.92
2022-10-17T02:38:48.310Z,16.97
2022-10-17T02:41:18.229Z,16.92
2022-10-17T02:43:47.914Z,16.80
2022-10-17T02:46:20.712Z,16.82
2022-10-17T02:48:51.697Z,16.65
2022-10-17T02:51:28.744Z,16.73
2022-10-17T02:54:00.280Z,16.76
2022-10-17T02:56:28.488Z,16.71
2022-10-17T02:58:58.701Z,16.73
2022-10-17T03:01:26.648Z,16.83
2022-10-17T03:04:07.518Z,16.73
2022-10-17T03:06:35.266Z,16.75
2022-10-17T03:09:04.019Z,16.71
2022-10-17T03:11:31.727Z,16.64
2022-10-17T03:13:59.451Z,16.61
2022-10-17T03:16:27.136Z,16.59
2022-10-17T03:18:54.827Z,16.61
2022-10-17T03:21:23.957Z,16.60
2022-10-17T03:23:51.649Z,16.55
2022-10-17T03:26:19.292Z,16.65
2022-10-17T03:28:49.553Z,16.60
2022-10-17T03:31:19.725Z,16.65
2022-10-17T03:33:47.420Z,16.63
2022-10-17T03:36:16.773Z,16.63
2022-10-17T03:38:47.001Z,16.57
2022-10-17T03:41:14.986Z,16.54
2022-10-17T03:43:42.665Z,16.64
2022-10-17T03:46:10.438Z,16.57
2022-10-17T03:48:38.365Z,16.60
2022-10-17T03:51:08.257Z,16.69
2022-10-17T03:53:36.247Z,16.68
2022-10-17T03:56:12.016Z,16.69
2022-10-17T03:58:40.150Z,16.58
2022-10-17T04:01:08.751Z,16.60
2022-10-17T04:03:36.583Z,16.56
2022-10-17T04:06:05.496Z,16.58
2022-10-17T04:08:34.045Z,16.60
2022-10-17T04:11:02.181Z,16.53
2022-10-17T04:13:31.842Z,16.48
2022-10-17T04:16:01.724Z,16.56
2022-10-17T04:18:30.073Z,16.53
2022-10-17T04:20:57.902Z,16.58
2022-10-17T04:23:27.036Z,16.50
2022-10-17T04:25:56.814Z,16.50
2022-10-17T04:28:24.738Z,16.53
2022-10-17T04:30:58.597Z,16.55
2022-10-17T04:33:26.257Z,16.53
2022-10-17T04:35:58.474Z,16.51
2022-10-17T04:38:28.467Z,16.46
2022-10-17T04:40:58.196Z,16.45
2022-10-17T04:43:26.325Z,16.40
2022-10-17T04:45:54.014Z,16.35
2022-10-17T04:48:23.234Z,16.39
2022-10-17T04:50:57.121Z,16.32
2022-10-17T04:53:25.305Z,16.41
2022-10-17T04:55:52.995Z,16.39
2022-10-17T04:58:21.155Z,16.33
2022-10-17T05:00:48.865Z,16.31
2022-10-17T05:03:16.759Z,16.31
2022-10-17T05:05:45.909Z,16.26
2022-10-17T05:08:13.977Z,16.11
2022-10-17T05:10:43.172Z,16.02
2022-10-17T05:13:11.553Z,16.06
2022-10-17T05:15:39.709Z,16.05
2022-10-17T05:18:07.720Z,15.83
2022-10-17T05:20:35.418Z,15.81
2022-10-17T05:23:04.558Z,15.77
2022-10-17T05:25:32.245Z,15.68
2022-10-17T05:27:59.964Z,15.67
2022-10-17T05:30:27.825Z,15.92
2022-10-17T05:32:55.773Z,15.95
2022-10-17T05:35:23.665Z,15.80
2022-10-17T05:37:51.392Z,15.72
2022-10-17T05:40:20.540Z,15.58
2022-10-17T05:42:48.593Z,15.46
2022-10-17T05:45:17.025Z,15.41
2022-10-17T05:47:44.747Z,15.50
2022-10-17T05:50:12.417Z,15.37
2022-10-17T05:52:41.942Z,15.34
2022-10-17T05:55:11.725Z,15.34
2022-10-17T05:57:40.731Z,15.30
2022-10-17T06:00:09.797Z,15.32
2022-10-17T06:02:37.505Z,15.26
2022-10-17T06:05:05.497Z,15.38
2022-10-17T06:07:33.286Z,15.50
2022-10-17T06:10:00.949Z,15.52
2022-10-17T06:12:30.823Z,15.54
2022-10-17T06:15:00.124Z,15.66
2022-10-17T06:17:30.266Z,15.79
2022-10-17T06:19:58.025Z,15.87
2022-10-17T06:22:25.917Z,15.94
2022-10-17T06:24:53.675Z,15.86
2022-10-17T06:27:21.736Z,15.98
2022-10-17T06:29:51.102Z,15.96
2022-10-17T06:32:20.109Z,16.03
2022-10-17T06:34:47.795Z,16.00
2022-10-17T06:37:15.457Z,16.02
2022-10-17T06:39:43.165Z,16.09
2022-10-17T06:42:10.916Z,16.09
2022-10-17T06:44:39.897Z,16.15
2022-10-17T06:47:07.644Z,16.11
2022-10-17T06:49:36.658Z,16.09
2022-10-17T06:52:04.431Z,15.92
2022-10-17T06:54:32.417Z,15.94
2022-10-17T06:57:00.090Z,15.86
2022-10-17T06:59:30.476Z,15.80
2022-10-17T07:01:58.178Z,15.76
2022-10-17T07:04:25.926Z,15.73
2022-10-17T07:06:55.007Z,15.68
2022-10-17T07:09:24.130Z,15.84
2022-10-17T07:11:51.899Z,15.78
2022-10-17T07:14:20.977Z,15.90
2022-10-17T07:16:49.817Z,15.88
2022-10-17T07:19:17.455Z,15.92
2022-10-17T07:21:45.213Z,15.91
2022-10-17T07:24:14.211Z,15.92
2022-10-17T07:26:41.873Z,16.01
2022-10-17T07:29:10.827Z,16.02
2022-10-17T07:31:38.697Z,16.08
2022-10-17T07:34:06.357Z,16.15
2022-10-17T07:36:34.033Z,16.17
2022-10-17T07:39:01.693Z,16.23
2022-10-17T07:41:31.392Z,16.31
2022-10-17T07:43:59.337Z,16.39
2022-10-17T07:46:27.068Z,16.36
2022-10-17T07:48:54.831Z,16.44
2022-10-17T07:51:22.808Z,16.49
2022-10-17T07:53:50.541Z,16.46
2022-10-17T07:56:18.257Z,16.52
2022-10-17T07:58:48.239Z,16.56
2022-10-17T08:01:16.301Z,16.60
2022-10-17T08:03:44.976Z,16.58
2022-10-17T08:06:13.037Z,16.78
2022-10-17T08:08:40.896Z,16.90
2022-10-17T08:11:10.494Z,17.03
2022-10-17T08:13:38.695Z,17.07
2022-10-17T08:16:10.032Z,17.17
2022-10-17T08:18:37.933Z,17.33
2022-10-17T08:21:08.239Z,17.39
2022-10-17T08:23:36.398Z,17.40
2022-10-17T08:26:05.940Z,17.45
2022-10-17T08:28:35.963Z,17.60
2022-10-17T08:31:05.204Z,17.69
2022-10-17T08:33:34.209Z,17.72
2022-10-17T08:36:02.992Z,17.71
2022-10-17T08:38:35.097Z,17.85
2022-10-17T08:41:06.502Z,17.81
2022-10-17T08:43:45.537Z,17.89
2022-10-17T08:48:49.205Z,18.07
2022-10-17T08:51:19.419Z,18.11
2022-10-17T08:53:50.833Z,18.10
2022-10-17T08:56:25.159Z,18.21
2022-10-17T08:59:12.463Z,18.28
2022-10-17T09:01:44.709Z,18.32
2022-10-17T09:04:33.059Z,18.47
2022-10-17T09:07:06.682Z,18.39
2022-10-17T09:09:41.390Z,18.40
2022-10-17T09:12:16.457Z,18.42
2022-10-17T09:14:55.026Z,18.55
2022-10-17T09:17:31.977Z,18.58
2022-10-17T09:20:05.269Z,18.76
2022-10-17T09:22:37.709Z,18.85
2022-10-17T09:25:07.521Z,18.71
2022-10-17T09:27:37.701Z,18.94
2022-10-17T09:30:33.487Z,18.90
2022-10-17T09:33:28.366Z,19.14
2022-10-17T09:36:10.570Z,19.20
2022-10-17T09:38:41.652Z,19.20
2022-10-17T09:41:43.047Z,19.24
2022-10-17T09:44:15.588Z,19.17
2022-10-17T09:46:45.869Z,19.32
2022-10-17T09:49:18.223Z,19.28
2022-10-17T09:51:47.303Z,19.37
2022-10-17T09:54:21.089Z,19.48
2022-10-17T09:56:58.129Z,19.55
2022-10-17T09:59:32.290Z,19.58
2022-10-17T10:02:10.420Z,19.67
2022-10-17T10:04:59.655Z,19.77
2022-10-17T10:07:29.486Z,19.84
2022-10-17T10:09:58.124Z,19.79
2022-10-17T10:12:27.177Z,19.82
2022-10-17T10:14:55.494Z,19.91
2022-10-17T10:17:35.605Z,19.92
2022-10-17T10:20:05.190Z,20.10
2022-10-17T10:22:34.187Z,20.08
2022-10-17T10:25:09.272Z,20.08
2022-10-17T10:27:37.525Z,20.12
2022-10-17T10:30:06.159Z,20.07
2022-10-17T10:32:36.035Z,20.23
2022-10-17T10:35:07.501Z,20.31
2022-10-17T10:37:39.208Z,20.28
2022-10-17T10:40:08.709Z,20.24
2022-10-17T10:42:38.287Z,20.40
2022-10-17T10:45:42.947Z,20.30
2022-10-17T10:48:18.524Z,20.54
2022-10-17T10:50:47.594Z,20.37
2022-10-17T10:53:34.795Z,20.37
2022-10-17T10:56:06.528Z,20.46
2022-10-17T10:58:42.134Z,20.40
2022-10-17T11:01:17.258Z,20.52
2022-10-17T11:03:54.628Z,20.41
2022-10-17T11:06:26.616Z,20.57
2022-10-17T11:09:06.579Z,20.60
2022-10-17T11:11:38.984Z,20.62
2022-10-17T11:14:13.817Z,20.55
2022-10-17T11:16:46.066Z,20.59
2022-10-17T11:19:18.128Z,20.50
2022-10-17T11:21:48.801Z,20.62
2022-10-17T11:24:23.864Z,20.56
2022-10-17T11:26:55.897Z,20.68
2022-10-17T11:29:27.420Z,20.67
2022-10-17T11:31:56.573Z,20.66
2022-10-17T11:34:27.299Z,20.63
2022-10-17T11:36:58.953Z,20.70
2022-10-17T11:39:32.629Z,20.84
2022-10-17T11:42:04.329Z,20.79
2022-10-17T11:44:35.529Z,20.72
2022-10-17T11:47:06.870Z,20.83
2022-10-17T11:49:40.598Z,20.77
2022-10-17T11:52:44.033Z,20.82
2022-10-17T11:55:15.146Z,20.72
2022-10-17T11:57:53.730Z,20.81
2022-10-17T12:00:50.584Z,20.77
2022-10-17T12:03:26.870Z,20.77
2022-10-17T12:05:58.861Z,20.72
2022-10-17T12:08:31.422Z,20.72
2022-10-17T12:11:04.140Z,20.59
2022-10-17T12:13:51.942Z,20.71
2022-10-17T12:16:44.481Z,20.65
2022-10-17T12:19:30.630Z,20.61
2022-10-17T12:22:00.639Z,20.54
2022-10-17T12:24:35.871Z,20.50
2022-10-17T12:27:24.308Z,20.56
2022-10-17T12:29:59.835Z,20.57
2022-10-17T12:32:30.261Z,20.46
2022-10-17T12:35:04.977Z,20.49
2022-10-17T12:38:29.525Z,20.57
2022-10-17T12:41:07.699Z,20.48
2022-10-17T12:46:42.392Z,20.48
2022-10-17T12:49:36.675Z,20.53
2022-10-17T12:52:17.449Z,20.44
2022-10-17T12:55:00.374Z,20.57
2022-10-17T12:57:38.556Z,20.58
2022-10-17T13:00:16.944Z,20.51
2022-10-17T13:02:45.583Z,20.57
2022-10-17T13:05:16.992Z,20.43
2022-10-17T13:07:46.048Z,20.52
2022-10-17T13:13:05.624Z,20.51
2022-10-17T13:15:35.290Z,20.51
2022-10-17T13:18:03.021Z,20.54
2022-10-17T13:20:32.118Z,20.47
2022-10-17T13:23:00.652Z,20.44
2022-10-17T13:25:29.160Z,20.40
2022-10-17T13:28:08.981Z,20.40
2022-10-17T13:30:38.195Z,20.40
2022-10-17T13:33:19.749Z,20.37
2022-10-17T13:35:59.958Z,20.37
2022-10-17T13:38:32.236Z,20.44
2022-10-17T13:41:16.562Z,20.51
2022-10-17T13:43:48.157Z,20.48
2022-10-17T13:46:37.319Z,20.42
2022-10-17T13:49:12.594Z,20.40
2022-10-17T13:51:44.535Z,20.47
2022-10-17T13:54:36.125Z,20.42
2022-10-17T13:57:05.593Z,20.51
2022-10-17T13:59:37.581Z,20.52
2022-10-17T14:02:12.441Z,20.46
2022-10-17T14:05:04.084Z,20.38
2022-10-17T14:07:46.124Z,20.33
2022-10-17T14:10:21.585Z,20.34
2022-10-17T14:12:51.157Z,20.39
2022-10-17T14:15:19.712Z,20.34
2022-10-17T14:17:55.518Z,20.34
2022-10-17T14:20:57.584Z,20.32
2022-10-17T14:23:47.459Z,20.28
2022-10-17T14:26:17.038Z,20.30
2022-10-17T14:28:46.540Z,20.31
2022-10-17T14:31:27.051Z,20.30
2022-10-17T14:33:56.667Z,20.35
2022-10-17T14:36:41.776Z,20.31
2022-10-17T14:39:19.733Z,20.45
2022-10-17T14:41:47.734Z,20.48
2022-10-17T14:44:20.657Z,20.38
2022-10-17T14:46:51.280Z,20.38
2022-10-17T14:49:27.049Z,20.33
2022-10-17T14:52:25.021Z,20.33
2022-10-17T14:54:53.183Z,20.33
2022-10-17T14:57:25.157Z,20.33
2022-10-17T14:59:54.634Z,20.35
2022-10-17T15:02:23.805Z,20.28
2022-10-17T15:04:52.992Z,20.43
2022-10-17T15:07:22.066Z,20.24
2022-10-17T15:09:51.963Z,20.24
2022-10-17T15:12:21.194Z,20.22
2022-10-17T15:14:49.424Z,20.26
2022-10-17T15:17:20.658Z,20.24
2022-10-17T15:19:48.551Z,20.24
2022-10-17T15:22:18.129Z,20.18
2022-10-17T15:24:46.757Z,20.30
2022-10-17T15:27:17.270Z,20.30
2022-10-17T15:29:45.413Z,20.29
2022-10-17T15:32:13.450Z,20.14
2022-10-17T15:34:41.292Z,20.21
2022-10-17T15:37:17.798Z,20.16
2022-10-17T15:39:47.941Z,20.16
2022-10-17T15:42:15.605Z,20.14
2022-10-17T15:44:44.416Z,20.18
2022-10-17T15:47:20.044Z,20.20
2022-10-17T15:49:47.728Z,20.18
2022-10-17T15:52:17.300Z,20.23
2022-10-17T15:54:44.997Z,20.16
2022-10-17T15:57:18.561Z,20.17
2022-10-17T15:59:47.057Z,20.23
2022-10-17T16:02:15.641Z,20.24
2022-10-17T16:04:43.695Z,20.19
2022-10-17T16:07:11.808Z,20.20
2022-10-17T16:09:41.297Z,20.19
2022-10-17T16:12:14.112Z,20.15
2022-10-17T16:14:42.028Z,20.15
2022-10-17T16:17:11.169Z,20.15
2022-10-17T16:19:38.841Z,20.18
2022-10-17T16:22:06.805Z,20.19
2022-10-17T16:24:34.493Z,20.13
2022-10-17T16:27:03.497Z,20.16
2022-10-17T16:29:31.154Z,20.11
2022-10-17T16:31:58.833Z,20.17
2022-10-17T16:34:26.621Z,20.16
2022-10-17T16:36:54.276Z,20.14
2022-10-17T16:39:22.197Z,20.17
2022-10-17T16:41:52.532Z,20.18
2022-10-17T16:44:23.824Z,20.21
2022-10-17T16:46:51.499Z,20.11
2022-10-17T16:49:19.146Z,20.11
2022-10-17T16:51:46.830Z,20.14
2022-10-17T16:54:14.518Z,20.21
2022-10-17T16:56:42.493Z,20.13
2022-10-17T16:59:10.592Z,20.15
2022-10-17T17:01:39.572Z,20.14
2022-10-17T17:04:08.995Z,20.14
2022-10-17T17:06:37.917Z,20.13
2022-10-17T17:09:05.639Z,19.92
2022-10-17T17:11:33.324Z,19.93
2022-10-17T17:14:02.296Z,20.08
2022-10-17T17:16:31.532Z,20.09
2022-10-17T17:19:02.736Z,20.12
2022-10-17T17:21:31.464Z,20.11
2022-10-17T17:24:00.177Z,20.05
2022-10-17T17:26:32.164Z,19.98
2022-10-17T17:29:01.134Z,20.09
2022-10-17T17:31:30.906Z,20.16
2022-10-17T17:34:00.224Z,20.10
2022-10-17T17:36:32.411Z,20.11
2022-10-17T17:39:02.989Z,20.14
2022-10-17T17:41:31.049Z,20.09
2022-10-17T17:43:58.730Z,20.11
2022-10-17T17:46:26.875Z,20.17
2022-10-17T17:48:55.667Z,20.18
2022-10-17T17:51:28.313Z,20.08
2022-10-17T17:53:57.360Z,20.05
2022-10-17T17:56:26.509Z,20.15
2022-10-17T17:58:56.330Z,20.10
2022-10-17T18:01:26.053Z,20.13
2022-10-17T18:03:55.066Z,20.13
2022-10-17T18:06:24.337Z,20.05
2022-10-17T18:08:54.709Z,20.09
2022-10-17T18:11:22.663Z,20.11
2022-10-17T18:13:54.677Z,20.15
2022-10-17T18:16:22.434Z,20.01
2022-10-17T18:18:50.380Z,20.14
2022-10-17T18:21:18.224Z,20.22
2022-10-17T18:23:48.400Z,20.07
2022-10-17T18:26:16.719Z,20.14
2022-10-17T18:28:45.171Z,20.12
2022-10-17T18:31:15.122Z,20.01
2022-10-17T18:33:44.514Z,19.97
2022-10-17T18:36:14.450Z,20.11
2022-10-17T18:38:42.555Z,20.18
2022-10-17T18:41:13.951Z,20.16
2022-10-17T18:43:43.623Z,20.03
2022-10-17T18:46:14.825Z,20.14
2022-10-17T18:48:44.222Z,20.15
2022-10-17T18:51:12.076Z,20.14
2022-10-17T18:53:40.780Z,20.12
2022-10-17T18:56:08.773Z,20.09
2022-10-17T18:58:38.986Z,20.05
2022-10-17T19:01:07.827Z,20.05
2022-10-17T19:03:35.648Z,20.06
2022-10-17T19:06:03.959Z,20.02
2022-10-17T19:08:31.627Z,20.01
2022-10-17T19:11:05.781Z,19.84
2022-10-17T19:13:33.539Z,19.96
2022-10-17T19:16:05.877Z,19.95
2022-10-17T19:18:34.281Z,19.99
2022-10-17T19:21:03.221Z,19.85
2022-10-17T19:23:31.106Z,19.90
2022-10-17T19:26:03.084Z,19.87
2022-10-17T19:28:30.819Z,19.81
2022-10-17T19:30:58.518Z,19.87
2022-10-17T19:35:57.677Z,20.10
2022-10-17T19:38:25.524Z,20.04
2022-10-17T19:40:53.814Z,19.96
2022-10-17T19:43:21.786Z,20.18
2022-10-17T19:45:56.340Z,20.09
2022-10-17T19:48:24.222Z,19.99
2022-10-17T19:50:53.748Z,20.16
2022-10-17T19:53:24.569Z,20.13
2022-10-17T19:55:52.469Z,19.97
2022-10-17T19:58:20.698Z,20.10
2022-10-17T20:00:48.757Z,20.10
2022-10-17T20:03:16.424Z,19.99
2022-10-17T20:05:44.306Z,19.91
2022-10-17T20:08:13.416Z,19.95
2022-10-17T20:10:41.122Z,20.02
2022-10-17T20:13:08.985Z,20.08
2022-10-17T20:15:36.970Z,19.99
2022-10-17T20:18:05.361Z,20.07
2022-10-17T20:20:34.983Z,20.11
2022-10-17T20:23:03.480Z,20.14
2022-10-17T20:25:33.253Z,20.03
2022-10-17T20:28:03.029Z,20.00
2022-10-17T20:30:30.895Z,19.94
2022-10-17T20:32:58.554Z,19.98
2022-10-17T20:35:26.245Z,20.02
2022-10-17T20:37:54.011Z,19.92
2022-10-17T20:40:36.890Z,19.96
2022-10-17T20:43:07.504Z,20.08
2022-10-17T20:45:50.563Z,19.84
2022-10-17T20:48:19.777Z,19.83
2022-10-17T20:50:47.436Z,19.72
2022-10-17T20:53:36.023Z,19.76
2022-10-17T20:56:04.044Z,19.72
2022-10-17T20:58:33.186Z,19.89
2022-10-17T21:01:06.091Z,20.00
2022-10-17T21:03:35.816Z,19.92
2022-10-17T21:06:05.533Z,19.88
2022-10-17T21:08:33.617Z,19.86
2022-10-17T21:11:12.097Z,19.92
2022-10-17T21:13:41.449Z,20.00
2022-10-17T21:16:11.302Z,19.92
2022-10-17T21:18:39.483Z,20.01
2022-10-17T21:21:11.550Z,19.86
2022-10-17T21:23:39.759Z,19.96
2022-10-17T21:26:12.974Z,20.00
2022-10-17T21:28:43.253Z,20.03
2022-10-17T21:31:13.053Z,19.96
2022-10-17T21:33:41.501Z,20.04
2022-10-17T21:36:10.132Z,20.00
2022-10-17T21:38:38.597Z,19.95
2022-10-17T21:41:07.775Z,19.97
2022-10-17T21:43:36.510Z,19.96
2022-10-17T21:46:07.432Z,19.96
2022-10-17T21:48:35.594Z,19.93
2022-10-17T21:51:05.549Z,19.90
2022-10-17T21:53:35.077Z,19.90
2022-10-17T21:56:05.977Z,19.92
2022-10-17T21:58:33.880Z,19.85
2022-10-17T22:01:07.726Z,19.87
2022-10-17T22:03:35.566Z,19.86
2022-10-17T22:06:12.942Z,19.55
2022-10-17T22:08:51.608Z,19.76
2022-10-17T22:11:20.841Z,19.77
2022-10-17T22:13:48.669Z,19.70
2022-10-17T22:16:17.711Z,19.72
2022-10-17T22:18:45.444Z,19.70
2022-10-17T22:21:14.316Z,19.58
2022-10-17T22:23:42.832Z,19.60
2022-10-17T22:26:11.227Z,19.65
2022-10-17T22:28:39.523Z,19.73
2022-10-17T22:31:07.786Z,19.71
2022-10-17T22:33:37.729Z,19.69
2022-10-17T22:36:06.268Z,19.40
2022-10-17T22:38:33.976Z,19.39
2022-10-17T22:41:01.704Z,19.29
2022-10-17T22:43:29.581Z,19.37
2022-10-17T22:45:58.285Z,19.43
2022-10-17T22:48:26.749Z,19.40
2022-10-17T22:50:57.115Z,19.43
2022-10-17T22:53:26.452Z,19.51
2022-10-17T22:55:54.477Z,19.48
2022-10-17T22:58:22.619Z,19.38
2022-10-17T23:00:50.788Z,19.46
2022-10-17T23:03:19.381Z,19.36
2022-10-17T23:05:47.252Z,19.34
2022-10-17T23:08:17.718Z,19.36
2022-10-17T23:10:45.433Z,19.48
2022-10-17T23:13:13.348Z,19.37
2022-10-17T23:15:41.108Z,19.45
2022-10-17T23:18:09.673Z,19.47
2022-10-17T23:20:38.386Z,19.42
2022-10-17T23:23:06.271Z,19.47
2022-10-17T23:25:35.516Z,19.53
2022-10-17T23:28:03.373Z,19.55
2022-10-17T23:30:32.735Z,19.52
2022-10-17T23:33:00.424Z,19.47
2022-10-17T23:35:28.108Z,19.38
2022-10-17T23:37:55.782Z,19.47
2022-10-17T23:40:23.809Z,19.41
2022-10-17T23:42:52.833Z,19.37
2022-10-17T23:45:20.606Z,19.41
2022-10-17T23:47:48.300Z,19.44
2022-10-17T23:50:16.329Z,19.30
2022-10-17T23:52:44.106Z,19.35
2022-10-17T23:55:11.826Z,19.20
2022-10-17T23:57:39.521Z,19.21
